Time;durP1;ratioP1;P1;durP2;ratioP2;P2;SDS_P1;SDS_P2;PMS_P1;PMS_P2;Temp;Humidity;BMP_temperature;BMP_pressure;BME280_temperature;BME280_humidity;BME280_pressure;Samples;Min_cycle;Max_cycle;Signal;HPM_P1;HPM_P2
2023/04/24 00:00:46;;;;;;;0.70;0.40;;;10.70;99.90;;;;;;5020188;28;20624;-65
2023/04/24 00:03:13;;;;;;;0.85;0.65;;;10.70;99.90;;;;;;5027142;28;20043;-65
2023/04/24 00:05:40;;;;;;;0.68;0.52;;;10.70;99.90;;;;;;5025426;28;20399;-64
2023/04/24 00:08:06;;;;;;;3.08;0.98;;;10.70;99.90;;;;;;5028759;28;20041;-65
2023/04/24 00:10:31;;;;;;;0.60;0.50;;;10.70;99.90;;;;;;5026028;28;20036;-65
2023/04/24 00:12:57;;;;;;;1.67;0.60;;;10.70;99.90;;;;;;5026011;28;20411;-65
2023/04/24 00:15:23;;;;;;;0.85;0.73;;;10.70;99.90;;;;;;5027528;28;20056;-65
2023/04/24 00:17:48;;;;;;;0.75;0.65;;;10.70;99.90;;;;;;5028155;28;20028;-66
2023/04/24 00:20:14;;;;;;;1.15;0.60;;;10.70;99.90;;;;;;5014781;28;20040;-66
2023/04/24 00:22:40;;;;;;;0.60;0.60;;;10.70;99.90;;;;;;5016613;28;20033;-65
2023/04/24 00:25:06;;;;;;;1.58;0.82;;;10.70;99.90;;;;;;5004151;28;20028;-65
2023/04/24 00:27:32;;;;;;;1.20;0.65;;;10.60;99.90;;;;;;5026145;28;20041;-64
2023/04/24 00:29:57;;;;;;;2.00;0.57;;;10.60;99.90;;;;;;5026504;28;20026;-65
2023/04/24 00:32:23;;;;;;;1.05;0.70;;;10.60;99.90;;;;;;5017349;28;20043;-65
2023/04/24 00:34:48;;;;;;;1.75;0.50;;;10.60;99.90;;;;;;5025592;28;20032;-64
2023/04/24 00:37:14;;;;;;;1.02;0.50;;;10.60;99.90;;;;;;5032790;28;20143;-65
2023/04/24 00:39:39;;;;;;;0.88;0.40;;;10.60;99.90;;;;;;5027912;28;20406;-66
2023/04/24 00:42:06;;;;;;;0.52;0.40;;;10.60;99.90;;;;;;5031380;28;20116;-65
2023/04/24 00:44:33;;;;;;;0.50;0.50;;;10.60;99.90;;;;;;5030179;28;20514;-66
2023/04/24 00:47:00;;;;;;;2.72;0.57;;;10.60;99.90;;;;;;5028998;28;20087;-65
2023/04/24 00:49:26;;;;;;;1.50;0.50;;;10.60;99.90;;;;;;5030285;28;20437;-65
2023/04/24 00:51:51;;;;;;;1.13;0.70;;;10.60;99.90;;;;;;5030750;28;20125;-65
2023/04/24 00:54:18;;;;;;;2.75;0.70;;;10.60;99.90;;;;;;5024196;28;20026;-65
2023/04/24 00:56:44;;;;;;;1.55;1.05;;;10.60;99.90;;;;;;5030793;28;20028;-65
2023/04/24 00:59:11;;;;;;;0.40;0.40;;;10.60;99.90;;;;;;5030731;28;20104;-66
2023/04/24 01:01:37;;;;;;;0.93;0.50;;;10.60;99.90;;;;;;5028253;28;20028;-65
2023/04/24 01:04:02;;;;;;;0.73;0.45;;;10.60;99.90;;;;;;5030459;28;20093;-66
2023/04/24 01:06:31;;;;;;;0.95;0.70;;;10.70;99.90;;;;;;5029082;28;20037;-66
2023/04/24 01:08:58;;;;;;;0.95;0.55;;;10.70;99.90;;;;;;5031288;28;20557;-65
2023/04/24 01:11:25;;;;;;;1.55;0.52;;;10.70;99.90;;;;;;5040521;28;20029;-66
2023/04/24 01:13:51;;;;;;;0.35;0.35;;;10.70;99.90;;;;;;5036211;28;20095;-66
2023/04/24 01:16:17;;;;;;;0.50;0.50;;;10.70;99.90;;;;;;5042321;28;20398;-66
2023/04/24 01:18:43;;;;;;;0.70;0.60;;;10.70;99.90;;;;;;5019386;28;20013;-66
2023/04/24 01:21:12;;;;;;;0.65;0.45;;;10.70;99.90;;;;;;5026816;28;20033;-65
2023/04/24 01:23:38;;;;;;;0.68;0.35;;;10.70;99.90;;;;;;5034830;28;20032;-66
2023/04/24 01:26:04;;;;;;;0.55;0.50;;;10.80;99.90;;;;;;5034842;28;20403;-66
2023/04/24 01:28:30;;;;;;;1.75;0.50;;;10.80;99.90;;;;;;5042824;28;20017;-65
2023/04/24 01:30:56;;;;;;;0.30;0.30;;;10.80;99.90;;;;;;5049007;28;20075;-66
2023/04/24 01:33:22;;;;;;;0.95;0.50;;;10.80;99.90;;;;;;5040009;28;20426;-66
2023/04/24 01:35:48;;;;;;;0.40;0.40;;;10.70;99.90;;;;;;5038704;28;20029;-65
2023/04/24 01:38:14;;;;;;;0.40;0.40;;;10.80;99.90;;;;;;5037959;28;20036;-65
2023/04/24 01:40:40;;;;;;;1.48;0.60;;;10.80;99.90;;;;;;5051316;28;20067;-65
2023/04/24 01:43:06;;;;;;;0.65;0.50;;;10.80;99.90;;;;;;5035288;28;20034;-66
2023/04/24 01:45:32;;;;;;;0.63;0.55;;;10.80;99.90;;;;;;5030073;28;20117;-65
2023/04/24 01:47:58;;;;;;;1.38;1.02;;;10.70;99.90;;;;;;5031075;28;20408;-66
2023/04/24 01:50:24;;;;;;;1.58;1.10;;;10.70;99.90;;;;;;5027231;28;20029;-66
2023/04/24 01:52:49;;;;;;;5.82;1.10;;;10.50;99.90;;;;;;5027804;28;20063;-66
2023/04/24 01:55:15;;;;;;;1.80;1.10;;;10.40;99.90;;;;;;5030193;28;20052;-66
2023/04/24 01:57:41;;;;;;;2.15;0.98;;;10.30;99.90;;;;;;5028721;28;20040;-66
2023/04/24 02:00:07;;;;;;;1.77;1.17;;;10.30;99.90;;;;;;5026201;28;20552;-65
2023/04/24 02:02:33;;;;;;;0.70;0.70;;;10.20;99.90;;;;;;5036382;28;20029;-65
2023/04/24 02:04:59;;;;;;;4.93;2.15;;;10.20;99.90;;;;;;5033873;28;20059;-66
2023/04/24 02:07:24;;;;;;;1.58;1.15;;;10.10;99.90;;;;;;5033188;28;20099;-65
2023/04/24 02:09:50;;;;;;;1.70;1.00;;;10.10;99.90;;;;;;5031210;28;20486;-66
2023/04/24 02:12:17;;;;;;;1.17;1.05;;;10.10;99.90;;;;;;5028081;28;20014;-66
2023/04/24 02:14:43;;;;;;;1.75;1.15;;;10.10;99.90;;;;;;5028588;28;20018;-65
2023/04/24 02:17:09;;;;;;;2.20;1.40;;;10.00;99.90;;;;;;5031457;28;20405;-66
2023/04/24 02:19:34;;;;;;;1.73;1.00;;;10.00;99.90;;;;;;5029421;28;20037;-66
2023/04/24 02:22:00;;;;;;;4.88;1.80;;;10.00;99.90;;;;;;5028308;28;20029;-66
2023/04/24 02:24:26;;;;;;;3.47;1.83;;;10.00;99.90;;;;;;5028948;28;20033;-66
2023/04/24 02:26:51;;;;;;;2.08;1.60;;;10.00;99.90;;;;;;5028572;28;20022;-66
2023/04/24 02:29:17;;;;;;;2.70;1.52;;;10.00;99.90;;;;;;5032733;28;20022;-65
2023/04/24 02:31:43;;;;;;;4.22;1.70;;;9.90;99.90;;;;;;5029041;28;20033;-66
2023/04/24 02:34:09;;;;;;;2.22;1.30;;;9.90;99.90;;;;;;5028035;28;20033;-66
2023/04/24 02:36:34;;;;;;;4.38;1.80;;;9.90;99.90;;;;;;5029474;28;20121;-66
2023/04/24 02:39:01;;;;;;;3.05;1.88;;;9.90;99.90;;;;;;5029243;28;20108;-66
2023/04/24 02:41:31;;;;;;;3.95;1.98;;;9.80;99.90;;;;;;5010904;28;20022;-66
2023/04/24 02:43:57;;;;;;;2.58;2.05;;;9.70;99.90;;;;;;5029118;28;20033;-66
2023/04/24 02:46:23;;;;;;;3.78;1.92;;;9.70;99.90;;;;;;5028604;28;20053;-65
2023/04/24 02:48:48;;;;;;;4.57;2.17;;;9.60;99.90;;;;;;5027764;28;20060;-66
2023/04/24 02:51:14;;;;;;;6.22;2.30;;;9.60;99.90;;;;;;5026407;28;20116;-65
2023/04/24 02:53:39;;;;;;;5.00;1.95;;;9.50;99.90;;;;;;5009557;28;20024;-65
2023/04/24 02:56:05;;;;;;;5.03;2.40;;;9.40;99.90;;;;;;5030153;28;20538;-66
2023/04/24 02:58:30;;;;;;;5.50;2.47;;;9.40;99.90;;;;;;5025983;28;20021;-64
2023/04/24 03:00:56;;;;;;;6.47;2.97;;;9.30;99.90;;;;;;5028169;28;20033;-65
2023/04/24 03:03:22;;;;;;;3.63;2.83;;;9.30;99.90;;;;;;5025828;28;20025;-66
2023/04/24 03:05:48;;;;;;;4.35;2.60;;;9.30;99.90;;;;;;5027671;28;20025;-66
2023/04/24 03:08:14;;;;;;;4.88;3.15;;;9.30;99.90;;;;;;5037533;28;20028;-65
2023/04/24 03:10:40;;;;;;;5.03;2.50;;;9.30;99.90;;;;;;5050250;28;20522;-65
2023/04/24 03:13:05;;;;;;;5.10;2.90;;;9.30;99.90;;;;;;5044041;28;20091;-65
2023/04/24 03:15:31;;;;;;;7.65;3.28;;;9.30;99.90;;;;;;5028824;28;20017;-65
2023/04/24 03:17:56;;;;;;;8.20;2.97;;;9.20;99.90;;;;;;5033865;28;20170;-65
2023/04/24 03:20:22;;;;;;;5.10;2.95;;;9.20;99.90;;;;;;5043505;28;20602;-66
2023/04/24 03:22:48;;;;;;;5.63;3.08;;;9.20;99.90;;;;;;5038295;28;20568;-66
2023/04/24 03:25:13;;;;;;;8.30;2.83;;;9.20;99.90;;;;;;5029968;28;20033;-66
2023/04/24 03:27:39;;;;;;;4.85;3.30;;;9.10;99.90;;;;;;5033245;28;20814;-66
2023/04/24 03:30:06;;;;;;;4.70;2.80;;;9.10;99.90;;;;;;5037645;28;20032;-65
2023/04/24 03:32:32;;;;;;;4.93;3.17;;;9.10;99.90;;;;;;5028274;28;20037;-65
2023/04/24 03:34:58;;;;;;;5.43;3.83;;;9.10;99.90;;;;;;5036404;28;20027;-65
2023/04/24 03:37:23;;;;;;;6.15;3.20;;;9.10;99.90;;;;;;5008521;28;20029;-65
2023/04/24 03:39:49;;;;;;;5.60;3.22;;;9.00;99.90;;;;;;5009798;28;20033;-65
2023/04/24 03:42:15;;;;;;;7.22;3.20;;;8.90;99.90;;;;;;5019035;28;20045;-65
2023/04/24 03:44:40;;;;;;;8.00;3.50;;;8.90;99.90;;;;;;5028091;28;20025;-65
2023/04/24 03:47:06;;;;;;;6.82;3.40;;;8.90;99.90;;;;;;5022243;28;20053;-65
2023/04/24 03:49:31;;;;;;;7.22;3.22;;;8.80;99.90;;;;;;5028715;28;20104;-66
2023/04/24 03:51:57;;;;;;;6.78;3.60;;;8.80;99.90;;;;;;5028592;28;20491;-65
2023/04/24 03:54:22;;;;;;;5.82;3.40;;;8.80;99.90;;;;;;5027809;28;20112;-65
2023/04/24 03:56:48;;;;;;;4.68;3.03;;;8.70;99.90;;;;;;5026598;28;20030;-65
2023/04/24 03:59:14;;;;;;;12.10;4.50;;;8.70;99.90;;;;;;5007219;28;20023;-65
2023/04/24 04:01:39;;;;;;;4.78;3.15;;;8.70;99.90;;;;;;5025979;28;20043;-66
2023/04/24 04:04:05;;;;;;;5.43;2.80;;;8.70;99.90;;;;;;5034284;28;20025;-66
2023/04/24 04:06:31;;;;;;;6.25;3.30;;;8.60;99.90;;;;;;5031598;28;20470;-66
2023/04/24 04:08:57;;;;;;;12.20;3.15;;;8.50;99.90;;;;;;5031750;28;20036;-65
2023/04/24 04:11:23;;;;;;;4.53;2.97;;;8.40;99.90;;;;;;5029412;28;20026;-65
2023/04/24 04:13:49;;;;;;;4.97;3.22;;;8.40;99.90;;;;;;5031653;28;20029;-66
2023/04/24 04:16:16;;;;;;;5.50;3.42;;;8.30;99.90;;;;;;5027728;28;20061;-66
2023/04/24 04:18:42;;;;;;;6.70;3.20;;;8.20;99.90;;;;;;5027629;28;20036;-65
2023/04/24 04:21:08;;;;;;;5.95;3.70;;;8.20;99.90;;;;;;5031946;28;20021;-65
2023/04/24 04:23:33;;;;;;;5.10;3.45;;;8.20;99.90;;;;;;5031822;28;20041;-65
2023/04/24 04:25:59;;;;;;;6.05;3.45;;;8.30;99.90;;;;;;5030559;28;20025;-65
2023/04/24 04:28:26;;;;;;;5.38;3.25;;;8.40;99.90;;;;;;5030511;28;20422;-64
2023/04/24 04:30:53;;;;;;;7.47;3.67;;;8.40;99.90;;;;;;5031766;28;20439;-66
2023/04/24 04:33:20;;;;;;;7.50;3.67;;;8.40;99.90;;;;;;5024864;28;20018;-65
2023/04/24 04:35:48;;;;;;;6.20;3.72;;;8.50;99.90;;;;;;5032492;28;20590;-66
2023/04/24 04:38:14;;;;;;;9.07;3.42;;;8.60;99.90;;;;;;5030900;28;20104;-66
2023/04/24 04:40:40;;;;;;;5.15;3.63;;;8.60;99.90;;;;;;5031358;28;20553;-66
2023/04/24 04:43:06;;;;;;;7.13;4.00;;;8.60;99.90;;;;;;5030791;28;20053;-67
2023/04/24 04:45:34;;;;;;;7.80;4.13;;;8.70;99.90;;;;;;5023297;28;20479;-65
2023/04/24 04:48:03;;;;;;;6.35;3.60;;;8.70;99.90;;;;;;5025363;28;20017;-65
2023/04/24 04:50:29;;;;;;;7.50;3.55;;;8.70;99.90;;;;;;5030362;28;20030;-65
2023/04/24 04:52:54;;;;;;;6.05;3.53;;;8.70;99.90;;;;;;5020831;28;20034;-66
2023/04/24 04:55:20;;;;;;;7.68;3.40;;;8.70;99.90;;;;;;5027562;28;20618;-66
2023/04/24 04:57:46;;;;;;;7.45;3.58;;;8.80;99.90;;;;;;5027605;28;20090;-65
2023/04/24 05:00:12;;;;;;;4.53;3.15;;;8.80;99.90;;;;;;5024585;28;20294;-66
2023/04/24 05:02:39;;;;;;;7.38;3.78;;;8.80;99.90;;;;;;5032011;28;20042;-66
2023/04/24 05:05:05;;;;;;;5.60;3.70;;;8.80;99.90;;;;;;5030604;28;20399;-65
2023/04/24 05:07:31;;;;;;;9.23;3.50;;;8.80;99.90;;;;;;5030810;28;20036;-65
2023/04/24 05:09:57;;;;;;;5.43;3.30;;;8.80;99.90;;;;;;5029701;28;20108;-65
2023/04/24 05:12:22;;;;;;;5.47;3.63;;;8.80;99.90;;;;;;5031188;28;20033;-65
2023/04/24 05:14:48;;;;;;;5.13;3.17;;;8.80;99.90;;;;;;5030491;28;20560;-65
2023/04/24 05:17:13;;;;;;;8.18;3.38;;;8.80;99.90;;;;;;5006488;28;20679;-65
2023/04/24 05:19:39;;;;;;;3.92;2.85;;;8.80;99.90;;;;;;5030941;28;20026;-65
2023/04/24 05:22:06;;;;;;;4.32;3.30;;;8.90;99.90;;;;;;5031439;28;20037;-65
2023/04/24 05:24:33;;;;;;;5.70;3.40;;;8.80;99.90;;;;;;5033375;28;20036;-66
2023/04/24 05:26:59;;;;;;;5.20;3.08;;;8.80;99.90;;;;;;5035231;28;20033;-66
2023/04/24 05:29:26;;;;;;;6.78;3.17;;;8.90;99.90;;;;;;5030863;28;20021;-65
2023/04/24 05:31:52;;;;;;;4.32;2.97;;;8.90;99.90;;;;;;5028924;28;20540;-66
2023/04/24 05:34:18;;;;;;;6.38;3.72;;;8.80;99.90;;;;;;5031804;28;20025;-66
2023/04/24 05:36:43;;;;;;;6.03;2.83;;;8.80;99.90;;;;;;5029482;28;20423;-66
2023/04/24 05:39:09;;;;;;;5.68;3.60;;;8.90;99.90;;;;;;5031318;28;20056;-65
2023/04/24 05:41:35;;;;;;;5.28;3.28;;;8.80;99.90;;;;;;5025254;28;20562;-66
2023/04/24 05:44:00;;;;;;;6.72;3.40;;;8.80;99.90;;;;;;5030180;28;20040;-66
2023/04/24 05:46:26;;;;;;;7.63;3.15;;;8.80;99.90;;;;;;5028485;28;20036;-65
2023/04/24 05:48:52;;;;;;;5.88;2.75;;;8.80;99.90;;;;;;5027433;28;20022;-66
2023/04/24 05:51:17;;;;;;;8.60;3.55;;;8.90;99.90;;;;;;5025914;28;20025;-66
2023/04/24 05:53:43;;;;;;;5.10;2.83;;;8.90;99.90;;;;;;5026823;28;20017;-66
2023/04/24 05:56:09;;;;;;;8.75;3.20;;;8.90;99.90;;;;;;5009091;28;20690;-66
2023/04/24 05:58:34;;;;;;;5.00;3.15;;;8.90;99.90;;;;;;5036340;28;20022;-65
2023/04/24 06:01:01;;;;;;;4.35;2.85;;;8.90;99.90;;;;;;5029962;28;20116;-65
2023/04/24 06:03:27;;;;;;;4.20;2.40;;;8.90;99.90;;;;;;5043055;28;20467;-66
2023/04/24 06:05:53;;;;;;;6.05;2.78;;;8.90;99.90;;;;;;5043198;28;20035;-65
2023/04/24 06:08:19;;;;;;;9.05;2.83;;;8.90;99.90;;;;;;5030037;28;20026;-65
2023/04/24 06:10:45;;;;;;;4.57;2.92;;;8.90;99.90;;;;;;5033885;28;20029;-65
2023/04/24 06:13:11;;;;;;;5.38;2.55;;;8.80;99.90;;;;;;5026029;28;20479;-66
2023/04/24 06:15:37;;;;;;;5.03;3.63;;;8.90;99.90;;;;;;5035675;28;20034;-66
2023/04/24 06:18:03;;;;;;;8.25;3.25;;;8.90;99.90;;;;;;5034612;28;20025;-66
2023/04/24 06:20:28;;;;;;;4.90;2.90;;;8.80;99.90;;;;;;5016111;28;20107;-65
2023/04/24 06:22:54;;;;;;;8.05;3.67;;;8.90;99.90;;;;;;5029896;28;20495;-66
2023/04/24 06:25:20;;;;;;;7.13;3.40;;;8.80;99.90;;;;;;5033306;28;20038;-66
2023/04/24 06:27:46;;;;;;;6.47;3.60;;;8.80;99.90;;;;;;5030683;28;20037;-65
2023/04/24 06:30:12;;;;;;;6.25;3.13;;;8.80;99.90;;;;;;5034707;28;20032;-66
2023/04/24 06:32:37;;;;;;;6.25;3.55;;;8.80;99.90;;;;;;5042451;28;20034;-65
2023/04/24 06:35:04;;;;;;;8.15;4.05;;;8.80;99.90;;;;;;5029967;28;20021;-64
2023/04/24 06:37:29;;;;;;;6.80;4.30;;;8.80;99.90;;;;;;5031802;28;20025;-65
2023/04/24 06:39:55;;;;;;;4.88;3.13;;;8.90;99.90;;;;;;5026471;28;20037;-66
2023/04/24 06:42:21;;;;;;;6.00;3.90;;;8.90;99.90;;;;;;5027850;28;20419;-64
2023/04/24 06:44:47;;;;;;;30.45;13.80;;;9.10;99.90;;;;;;5016886;28;20025;-66
2023/04/24 06:47:16;;;;;;;15.48;9.55;;;9.10;99.90;;;;;;5035949;28;20390;-67
2023/04/24 06:49:42;;;;;;;35.03;19.35;;;9.00;99.90;;;;;;5038639;28;20021;-66
2023/04/24 06:52:07;;;;;;;12.57;7.90;;;9.00;99.90;;;;;;5020156;28;20025;-66
2023/04/24 06:54:33;;;;;;;9.98;4.85;;;9.00;99.90;;;;;;5027355;28;20025;-66
2023/04/24 06:57:00;;;;;;;13.60;7.60;;;9.00;99.90;;;;;;5024563;28;20028;-66
2023/04/24 06:59:27;;;;;;;11.95;8.13;;;8.90;99.90;;;;;;5028759;28;20434;-65
2023/04/24 07:01:52;;;;;;;7.45;5.50;;;8.80;99.90;;;;;;5047170;28;20032;-67
2023/04/24 07:04:18;;;;;;;10.27;5.15;;;8.70;99.90;;;;;;5029728;28;20487;-68
2023/04/24 07:06:46;;;;;;;8.68;5.25;;;8.70;99.90;;;;;;5028580;28;20788;-66
2023/04/24 07:09:13;;;;;;;6.63;4.38;;;8.60;99.90;;;;;;5027295;28;20107;-67
2023/04/24 07:11:40;;;;;;;9.07;4.25;;;8.60;99.90;;;;;;5025113;28;21792;-66
2023/04/24 07:14:06;;;;;;;11.25;5.28;;;8.60;99.90;;;;;;5005849;28;20495;-66
2023/04/24 07:16:32;;;;;;;7.13;4.45;;;8.60;99.90;;;;;;5026579;28;20065;-66
2023/04/24 07:18:57;;;;;;;5.30;3.95;;;8.60;99.90;;;;;;5027324;28;20025;-66
2023/04/24 07:21:23;;;;;;;7.03;4.32;;;8.70;99.90;;;;;;5028941;28;20505;-66
2023/04/24 07:23:49;;;;;;;5.20;3.58;;;8.80;99.90;;;;;;5019099;28;20025;-67
2023/04/24 07:26:14;;;;;;;6.38;3.50;;;8.80;99.90;;;;;;5030348;28;20113;-65
2023/04/24 07:28:40;;;;;;;7.72;3.80;;;8.70;99.90;;;;;;5010132;28;20029;-66
2023/04/24 07:31:07;;;;;;;7.32;4.25;;;8.70;99.90;;;;;;5029345;28;20060;-67
2023/04/24 07:33:33;;;;;;;5.63;3.67;;;8.60;99.90;;;;;;5024471;28;20029;-66
2023/04/24 07:35:59;;;;;;;5.72;3.72;;;8.60;99.90;;;;;;5024683;28;20031;-66
2023/04/24 07:38:25;;;;;;;6.78;2.40;;;8.60;99.90;;;;;;5030413;28;20026;-66
2023/04/24 07:40:51;;;;;;;3.67;2.65;;;8.50;99.90;;;;;;5029454;28;20022;-66
2023/04/24 07:43:17;;;;;;;9.75;4.25;;;8.50;99.90;;;;;;5039438;28;20104;-66
2023/04/24 07:45:43;;;;;;;4.47;2.25;;;8.50;99.90;;;;;;5028075;28;20026;-67
2023/04/24 07:48:09;;;;;;;3.88;2.28;;;8.40;99.90;;;;;;5043690;28;20036;-66
2023/04/24 07:50:36;;;;;;;3.30;2.47;;;8.40;99.90;;;;;;5031657;28;20079;-66
2023/04/24 07:53:01;;;;;;;2.92;1.65;;;8.40;99.90;;;;;;5051069;23;20041;-65
2023/04/24 07:55:27;;;;;;;3.58;1.38;;;8.40;99.90;;;;;;5036748;28;20044;-66
2023/04/24 07:57:52;;;;;;;2.83;1.80;;;8.30;99.90;;;;;;5040863;28;20044;-66
2023/04/24 08:00:18;;;;;;;2.67;1.70;;;8.40;99.90;;;;;;5038179;28;20098;-66
2023/04/24 08:02:44;;;;;;;1.85;1.20;;;8.40;99.90;;;;;;5031155;28;20053;-68
2023/04/24 08:05:10;;;;;;;1.40;1.00;;;8.30;99.90;;;;;;5039863;28;20107;-68
2023/04/24 08:07:35;;;;;;;3.75;1.00;;;8.30;99.90;;;;;;5026055;28;20030;-69
2023/04/24 08:10:02;;;;;;;1.17;0.70;;;8.30;99.90;;;;;;5025920;28;20063;-68
2023/04/24 08:12:30;;;;;;;7.43;1.77;;;8.20;99.90;;;;;;5031265;28;20399;-65
2023/04/24 08:14:56;;;;;;;2.55;1.27;;;8.00;99.90;;;;;;5031966;28;20021;-65
2023/04/24 08:17:22;;;;;;;2.00;0.93;;;8.00;99.90;;;;;;5032816;28;20028;-67
2023/04/24 08:19:48;;;;;;;1.58;0.75;;;8.00;99.90;;;;;;5032694;28;20462;-66
2023/04/24 08:22:16;;;;;;;1.17;0.70;;;7.90;99.90;;;;;;5030835;28;20463;-65
2023/04/24 08:24:42;;;;;;;1.67;1.10;;;7.80;99.90;;;;;;5031780;28;20026;-66
2023/04/24 08:27:08;;;;;;;1.67;0.82;;;7.80;99.90;;;;;;5028705;28;20582;-66
2023/04/24 08:29:34;;;;;;;1.33;0.85;;;7.70;99.90;;;;;;5040192;28;20499;-64
2023/04/24 08:32:00;;;;;;;4.65;0.90;;;7.70;99.90;;;;;;5029904;28;20029;-63
2023/04/24 08:34:25;;;;;;;1.13;0.93;;;7.60;99.90;;;;;;5036926;28;20085;-67
2023/04/24 08:36:51;;;;;;;3.78;1.70;;;7.50;99.90;;;;;;5035591;28;20029;-68
2023/04/24 08:39:17;;;;;;;5.78;1.05;;;7.50;99.90;;;;;;5047217;28;20021;-65
2023/04/24 08:41:45;;;;;;;2.33;1.00;;;7.50;99.90;;;;;;5027738;28;20033;-68
2023/04/24 08:44:12;;;;;;;1.55;1.05;;;7.50;99.90;;;;;;5037999;28;20028;-65
2023/04/24 08:46:39;;;;;;;1.38;1.00;;;7.40;99.90;;;;;;5034546;28;20029;-65
2023/04/24 08:49:05;;;;;;;2.50;1.23;;;7.40;99.90;;;;;;5031389;28;20388;-66
2023/04/24 08:51:31;;;;;;;0.73;0.50;;;7.20;99.90;;;;;;5042504;28;20051;-65
2023/04/24 08:53:57;;;;;;;7.00;0.60;;;7.10;99.90;;;;;;5018853;28;20160;-66
2023/04/24 08:56:24;;;;;;;0.50;0.50;;;7.00;99.90;;;;;;5033310;28;20051;-65
2023/04/24 08:58:54;;;;;;;1.40;0.82;;;6.80;99.90;;;;;;5027686;28;20457;-66
2023/04/24 09:01:20;;;;;;;2.92;1.40;;;6.70;99.90;;;;;;5033298;28;20052;-64
2023/04/24 09:03:48;;;;;;;9.77;4.95;;;6.70;99.90;;;;;;5033257;28;20032;-64
2023/04/24 09:06:15;;;;;;;1.08;0.80;;;6.70;99.90;;;;;;5024019;28;20049;-67
2023/04/24 09:08:43;;;;;;;0.98;0.70;;;6.60;99.90;;;;;;5031259;28;20025;-64
2023/04/24 09:11:11;;;;;;;3.53;1.67;;;6.70;99.90;;;;;;5033319;28;20178;-65
2023/04/24 09:13:37;;;;;;;12.23;4.90;;;6.70;99.90;;;;;;5028951;28;20928;-67
2023/04/24 09:16:03;;;;;;;17.92;7.75;;;6.70;99.90;;;;;;5037586;28;20472;-64
2023/04/24 09:18:28;;;;;;;3.22;1.83;;;6.70;99.90;;;;;;4969842;28;20041;-66
2023/04/24 09:21:02;;;;;;;1.92;1.05;;;6.70;99.90;;;;;;5029602;28;20591;-65
2023/04/24 09:23:29;;;;;;;;;;;6.80;99.90;;;;;;5018486;28;20021;-67
2023/04/24 09:25:56;;;;;;;2.70;1.75;;;6.80;99.90;;;;;;5019718;28;19909;-65
2023/04/24 09:28:27;;;;;;;2.90;1.33;;;6.80;99.90;;;;;;5028867;28;20021;-65
2023/04/24 09:31:07;;;;;;;2.03;1.70;;;6.80;99.90;;;;;;5041022;28;20040;-64
2023/04/24 09:33:33;;;;;;;2.45;2.05;;;6.80;99.90;;;;;;5040770;28;20032;-65
2023/04/24 09:35:59;;;;;;;3.65;2.20;;;6.90;99.90;;;;;;5034117;28;20076;-63
2023/04/24 09:38:37;;;;;;;7.05;2.47;;;6.90;99.90;;;;;;5027449;28;20025;-64
2023/04/24 09:41:05;;;;;;;4.30;2.45;;;7.00;99.90;;;;;;5026157;28;20036;-64
2023/04/24 09:43:32;;;;;;;5.55;2.58;;;7.00;99.90;;;;;;5007229;28;20030;-64
2023/04/24 09:45:58;;;;;;;3.42;2.35;;;7.10;99.90;;;;;;5027196;28;20386;-65
2023/04/24 09:48:35;;;;;;;4.43;2.72;;;7.20;99.90;;;;;;5023913;28;20474;-65
2023/04/24 09:51:11;;;;;;;5.78;2.97;;;7.30;99.90;;;;;;5024946;28;20045;-65
2023/04/24 09:53:36;;;;;;;5.85;3.05;;;7.30;99.90;;;;;;5023064;28;20534;-67
2023/04/24 09:56:06;;;;;;;5.45;3.05;;;7.30;99.90;;;;;;5025769;28;20116;-65
2023/04/24 09:58:32;;;;;;;8.57;3.05;;;7.40;99.90;;;;;;5024364;28;20109;-64
2023/04/24 10:00:57;;;;;;;6.13;3.45;;;7.40;99.90;;;;;;5032710;28;20086;-66
2023/04/24 10:03:30;;;;;;;5.68;2.97;;;7.50;99.90;;;;;;5028251;28;20028;-64
2023/04/24 10:05:59;;;;;;;7.70;4.03;;;7.60;99.90;;;;;;5033780;28;20029;-66
2023/04/24 10:08:26;;;;;;;11.52;4.57;;;7.70;99.90;;;;;;5022918;28;20038;-64
2023/04/24 10:10:52;;;;;;;5.30;3.20;;;7.80;99.90;;;;;;5040451;28;20416;-67
2023/04/24 10:13:18;;;;;;;11.60;5.07;;;7.90;99.90;;;;;;5013831;28;20072;-64
2023/04/24 10:15:44;;;;;;;17.48;7.95;;;8.00;99.90;;;;;;5025404;28;20026;-64
2023/04/24 10:18:11;;;;;;;19.35;9.77;;;8.20;99.90;;;;;;5026023;28;20056;-65
2023/04/24 10:20:39;;;;;;;15.10;7.30;;;8.20;99.90;;;;;;5030987;28;20037;-64
2023/04/24 10:23:05;;;;;;;15.02;7.38;;;8.20;99.90;;;;;;5030059;28;20108;-65
2023/04/24 10:25:33;;;;;;;13.98;8.32;;;8.50;99.90;;;;;;5020807;28;20444;-64
2023/04/24 10:28:00;;;;;;;13.60;5.30;;;8.70;99.90;;;;;;5023929;28;20030;-63
2023/04/24 10:30:27;;;;;;;8.95;4.70;;;8.80;99.90;;;;;;5030503;28;20017;-65
2023/04/24 10:32:54;;;;;;;7.70;3.75;;;9.00;99.90;;;;;;5019896;28;20024;-65
2023/04/24 10:35:22;;;;;;;9.23;3.65;;;9.10;99.90;;;;;;5031487;28;20075;-65
2023/04/24 10:38:24;;;;;;;8.73;4.10;;;9.10;99.90;;;;;;5034154;28;20018;-64
2023/04/24 10:40:50;;;;;;;21.98;9.07;;;9.10;99.90;;;;;;5023844;28;20083;-65
2023/04/24 10:43:18;;;;;;;65.68;30.42;;;9.30;99.90;;;;;;5027489;28;20090;-66
2023/04/24 10:46:04;;;;;;;93.55;39.05;;;9.40;99.90;;;;;;5027205;28;20021;-65
2023/04/24 10:48:32;;;;;;;10.77;6.72;;;9.60;99.90;;;;;;5032150;28;20033;-66
2023/04/24 10:50:58;;;;;;;14.60;8.18;;;9.70;99.90;;;;;;5046752;28;20025;-65
2023/04/24 10:53:27;;;;;;;8.38;4.00;;;10.00;99.90;;;;;;5019507;28;20034;-66
2023/04/24 10:56:07;;;;;;;8.88;3.60;;;10.40;99.90;;;;;;5029542;28;20032;-65
2023/04/24 10:58:52;;;;;;;52.80;22.67;;;10.70;99.90;;;;;;5016994;28;20026;-66
2023/04/24 11:01:30;;;;;;;45.60;26.65;;;10.80;99.90;;;;;;4950141;28;20515;-66
2023/04/24 11:04:02;;;;;;;9.45;5.32;;;10.60;99.90;;;;;;4982311;28;20041;-65
2023/04/24 11:06:32;;;;;;;6.88;3.83;;;10.30;99.90;;;;;;5016501;28;20047;-66
2023/04/24 11:09:08;;;;;;;10.20;3.15;;;10.10;99.90;;;;;;5017813;28;20041;-66
2023/04/24 11:11:36;;;;;;;7.55;3.55;;;9.80;99.90;;;;;;5038126;28;20028;-66
2023/04/24 11:14:06;;;;;;;9.50;6.05;;;9.60;99.90;;;;;;5025242;28;20040;-65
2023/04/24 11:16:57;;;;;;;19.10;8.20;;;9.60;99.90;;;;;;5022832;28;20033;-66
2023/04/24 11:19:24;;;;;;;32.47;14.50;;;10.00;99.90;;;;;;4999223;28;20037;-65
2023/04/24 11:22:01;;;;;;;15.80;7.65;;;10.20;99.90;;;;;;4999431;28;20090;-65
2023/04/24 11:24:31;;;;;;;6.65;3.10;;;10.20;99.90;;;;;;5025079;28;20030;-66
2023/04/24 11:27:03;;;;;;;6.00;3.00;;;10.10;99.90;;;;;;5021567;28;20033;-67
2023/04/24 11:29:46;;;;;;;14.95;2.97;;;9.90;99.90;;;;;;5026846;28;20021;-68
2023/04/24 11:32:19;;;;;;;12.15;3.40;;;9.70;99.90;;;;;;5026925;28;20036;-65
2023/04/24 11:34:55;;;;;;;8.55;3.60;;;9.60;99.90;;;;;;4974271;28;20041;-66
2023/04/24 11:37:42;;;;;;;8.63;4.35;;;9.50;99.90;;;;;;5020607;28;20399;-66
2023/04/24 11:40:11;;;;;;;10.27;3.30;;;9.50;99.90;;;;;;5028356;28;20532;-65
2023/04/24 11:42:38;;;;;;;9.18;2.92;;;9.40;99.90;;;;;;5020724;28;20041;-65
2023/04/24 11:45:17;;;;;;;10.07;2.83;;;9.20;99.90;;;;;;5018392;28;20092;-66
2023/04/24 11:47:43;;;;;;;5.85;2.40;;;9.20;99.90;;;;;;4993715;28;20115;-65
2023/04/24 11:50:13;;;;;;;11.05;2.55;;;9.20;99.90;;;;;;5021535;28;20077;-65
2023/04/24 11:52:47;;;;;;;6.88;2.78;;;8.90;99.90;;;;;;5025441;28;20037;-65
2023/04/24 11:55:19;;;;;;;;;;;8.90;99.90;;;;;;5023158;28;20044;-65
2023/04/24 11:57:46;;;;;;;9.15;2.85;;;9.00;99.90;;;;;;5019336;28;19916;-66
2023/04/24 12:00:17;;;;;;;7.35;2.47;;;8.80;99.90;;;;;;5015325;28;20124;-66
2023/04/24 12:02:42;;;;;;;9.18;3.08;;;8.80;99.90;;;;;;4982183;28;20049;-67
2023/04/24 12:05:08;;;;;;;9.80;2.88;;;8.80;99.90;;;;;;5002693;28;20045;-66
2023/04/24 12:07:44;;;;;;;8.18;3.22;;;8.80;99.90;;;;;;5000599;28;20049;-66
2023/04/24 12:10:10;;;;;;;3.00;2.10;;;9.00;99.90;;;;;;4963309;28;20049;-67
2023/04/24 12:12:35;;;;;;;14.07;3.85;;;9.30;99.90;;;;;;5002602;28;20069;-67
2023/04/24 12:15:06;;;;;;;6.13;3.10;;;10.10;99.90;;;;;;4999195;28;20053;-66
2023/04/24 12:17:32;;;;;;;9.90;3.35;;;10.70;99.90;;;;;;5000822;28;20451;-65
2023/04/24 12:20:06;;;;;;;8.45;2.90;;;11.00;99.90;;;;;;5000356;28;20037;-65
2023/04/24 12:22:49;;;;;;;;;;;11.40;99.90;;;;;;5005283;28;20487;-66
2023/04/24 12:25:17;;;;;;;7.57;3.67;;;11.60;99.90;;;;;;5001229;28;20454;-66
2023/04/24 12:27:44;;;;;;;8.43;4.70;;;11.70;99.90;;;;;;4977549;28;20044;-65
2023/04/24 12:30:13;;;;;;;14.65;7.55;;;12.10;99.90;;;;;;5003936;28;20403;-65
2023/04/24 12:32:43;;;;;;;9.88;3.05;;;11.90;99.90;;;;;;4997757;28;20857;-68
2023/04/24 12:35:09;;;;;;;6.60;3.03;;;11.90;99.90;;;;;;5022116;28;20026;-66
2023/04/24 12:37:36;;;;;;;8.05;3.50;;;11.80;99.90;;;;;;5012258;28;20117;-66
2023/04/24 12:40:03;;;;;;;7.00;3.58;;;11.70;99.90;;;;;;4991595;28;20025;-66
2023/04/24 12:42:30;;;;;;;6.05;3.10;;;11.50;99.90;;;;;;5007845;28;20053;-65
2023/04/24 12:45:04;;;;;;;10.93;3.40;;;11.70;99.90;;;;;;4990659;28;20030;-66
2023/04/24 12:47:31;;;;;;;9.43;3.78;;;11.50;99.90;;;;;;5011187;28;20418;-67
2023/04/24 12:49:56;;;;;;;8.27;3.15;;;11.50;99.90;;;;;;5006831;28;20045;-66
2023/04/24 12:52:23;;;;;;;7.97;3.80;;;11.30;99.90;;;;;;5013586;28;20393;-66